sensor_id;sensor_type;location;lat;lon;timestamp;P1;durP1;ratioP1;P2;durP2;ratioP2
5199;SDS011;2619;47.868;11.892;2023-05-21T00:02:16;21.70;;;8.90;;
5199;SDS011;2619;47.868;11.892;2023-05-21T00:04:43;12.27;;;8.73;;
5199;SDS011;2619;47.868;11.892;2023-05-21T00:07:09;21.90;;;9.70;;
5199;SDS011;2619;47.868;11.892;2023-05-21T00:09:36;15.90;;;8.30;;
5199;SDS011;2619;47.868;11.892;2023-05-21T00:12:05;13.30;;;8.90;;
5199;SDS011;2619;47.868;11.892;2023-05-21T00:14:32;16.00;;;8.60;;
5199;SDS011;2619;47.868;11.892;2023-05-21T00:16:58;11.77;;;7.10;;
5199;SDS011;2619;47.868;11.892;2023-05-21T00:19:24;12.23;;;7.30;;
5199;SDS011;2619;47.868;11.892;2023-05-21T00:21:50;12.67;;;7.20;;
5199;SDS011;2619;47.868;11.892;2023-05-21T00:24:16;13.87;;;8.03;;
5199;SDS011;2619;47.868;11.892;2023-05-21T00:26:42;11.97;;;7.53;;
5199;SDS011;2619;47.868;11.892;2023-05-21T00:29:08;10.77;;;7.73;;
5199;SDS011;2619;47.868;11.892;2023-05-21T00:31:33;11.13;;;8.27;;
5199;SDS011;2619;47.868;11.892;2023-05-21T00:33:59;11.40;;;7.47;;
5199;SDS011;2619;47.868;11.892;2023-05-21T00:36:24;13.80;;;8.00;;
5199;SDS011;2619;47.868;11.892;2023-05-21T00:38:50;14.73;;;7.77;;
5199;SDS011;2619;47.868;11.892;2023-05-21T00:41:16;26.87;;;10.17;;
5199;SDS011;2619;47.868;11.892;2023-05-21T00:43:43;12.47;;;8.30;;
5199;SDS011;2619;47.868;11.892;2023-05-21T00:46:09;21.83;;;9.03;;
5199;SDS011;2619;47.868;11.892;2023-05-21T00:48:40;12.20;;;7.63;;
5199;SDS011;2619;47.868;11.892;2023-05-21T00:51:07;18.00;;;8.63;;
5199;SDS011;2619;47.868;11.892;2023-05-21T00:53:33;13.50;;;9.33;;
5199;SDS011;2619;47.868;11.892;2023-05-21T00:55:59;11.87;;;8.47;;
5199;SDS011;2619;47.868;11.892;2023-05-21T00:58:26;18.83;;;8.27;;
5199;SDS011;2619;47.868;11.892;2023-05-21T01:00:52;17.17;;;8.70;;
5199;SDS011;2619;47.868;11.892;2023-05-21T01:03:21;24.07;;;9.83;;
5199;SDS011;2619;47.868;11.892;2023-05-21T01:05:50;15.70;;;8.40;;
5199;SDS011;2619;47.868;11.892;2023-05-21T01:08:17;11.40;;;7.10;;
5199;SDS011;2619;47.868;11.892;2023-05-21T01:10:45;12.83;;;8.13;;
5199;SDS011;2619;47.868;11.892;2023-05-21T01:13:12;12.53;;;8.40;;
5199;SDS011;2619;47.868;11.892;2023-05-21T01:15:40;12.23;;;8.53;;
5199;SDS011;2619;47.868;11.892;2023-05-21T01:18:07;16.17;;;9.20;;
5199;SDS011;2619;47.868;11.892;2023-05-21T01:20:33;13.60;;;8.17;;
5199;SDS011;2619;47.868;11.892;2023-05-21T01:22:59;16.87;;;9.70;;
5199;SDS011;2619;47.868;11.892;2023-05-21T01:25:25;14.40;;;9.00;;
5199;SDS011;2619;47.868;11.892;2023-05-21T01:27:50;14.03;;;8.33;;
5199;SDS011;2619;47.868;11.892;2023-05-21T01:30:17;11.50;;;7.80;;
5199;SDS011;2619;47.868;11.892;2023-05-21T01:32:51;11.13;;;8.17;;
5199;SDS011;2619;47.868;11.892;2023-05-21T01:35:20;10.60;;;8.00;;
5199;SDS011;2619;47.868;11.892;2023-05-21T01:37:54;19.70;;;9.27;;
5199;SDS011;2619;47.868;11.892;2023-05-21T01:40:43;24.40;;;9.53;;
5199;SDS011;2619;47.868;11.892;2023-05-21T01:43:16;15.40;;;8.80;;
5199;SDS011;2619;47.868;11.892;2023-05-21T01:45:43;13.23;;;9.00;;
5199;SDS011;2619;47.868;11.892;2023-05-21T01:48:10;15.87;;;9.40;;
5199;SDS011;2619;47.868;11.892;2023-05-21T01:50:37;15.03;;;8.80;;
5199;SDS011;2619;47.868;11.892;2023-05-21T01:53:04;13.33;;;8.50;;
5199;SDS011;2619;47.868;11.892;2023-05-21T01:55:30;12.40;;;8.70;;
5199;SDS011;2619;47.868;11.892;2023-05-21T01:57:57;15.00;;;9.63;;
5199;SDS011;2619;47.868;11.892;2023-05-21T02:00:24;13.17;;;9.67;;
5199;SDS011;2619;47.868;11.892;2023-05-21T02:02:54;25.90;;;10.20;;
5199;SDS011;2619;47.868;11.892;2023-05-21T02:05:20;21.13;;;10.67;;
5199;SDS011;2619;47.868;11.892;2023-05-21T02:07:46;14.10;;;9.07;;
5199;SDS011;2619;47.868;11.892;2023-05-21T02:10:11;20.23;;;10.63;;
5199;SDS011;2619;47.868;11.892;2023-05-21T02:12:37;15.10;;;9.90;;
5199;SDS011;2619;47.868;11.892;2023-05-21T02:15:03;16.60;;;9.43;;
5199;SDS011;2619;47.868;11.892;2023-05-21T02:17:29;12.57;;;8.50;;
5199;SDS011;2619;47.868;11.892;2023-05-21T02:19:57;18.17;;;9.77;;
5199;SDS011;2619;47.868;11.892;2023-05-21T02:25:05;16.77;;;9.77;;
5199;SDS011;2619;47.868;11.892;2023-05-21T02:27:33;16.13;;;9.50;;
5199;SDS011;2619;47.868;11.892;2023-05-21T02:30:01;14.43;;;9.83;;
5199;SDS011;2619;47.868;11.892;2023-05-21T02:32:28;15.00;;;9.10;;
5199;SDS011;2619;47.868;11.892;2023-05-21T02:34:55;15.23;;;10.20;;
5199;SDS011;2619;47.868;11.892;2023-05-21T02:37:22;19.07;;;10.20;;
5199;SDS011;2619;47.868;11.892;2023-05-21T02:39:49;12.83;;;9.10;;
5199;SDS011;2619;47.868;11.892;2023-05-21T02:42:15;14.57;;;10.00;;
5199;SDS011;2619;47.868;11.892;2023-05-21T02:44:40;10.50;;;8.60;;
5199;SDS011;2619;47.868;11.892;2023-05-21T02:47:06;14.77;;;9.23;;
5199;SDS011;2619;47.868;11.892;2023-05-21T02:49:34;15.73;;;10.40;;
5199;SDS011;2619;47.868;11.892;2023-05-21T02:52:00;16.50;;;9.33;;
5199;SDS011;2619;47.868;11.892;2023-05-21T02:54:25;22.40;;;10.53;;
5199;SDS011;2619;47.868;11.892;2023-05-21T02:56:51;14.43;;;10.00;;
5199;SDS011;2619;47.868;11.892;2023-05-21T02:59:16;22.67;;;12.07;;
5199;SDS011;2619;47.868;11.892;2023-05-21T03:01:42;20.93;;;10.17;;
5199;SDS011;2619;47.868;11.892;2023-05-21T03:04:09;16.50;;;10.23;;
5199;SDS011;2619;47.868;11.892;2023-05-21T03:06:34;18.10;;;10.27;;
5199;SDS011;2619;47.868;11.892;2023-05-21T03:09:01;14.30;;;10.17;;
5199;SDS011;2619;47.868;11.892;2023-05-21T03:11:27;15.73;;;9.80;;
5199;SDS011;2619;47.868;11.892;2023-05-21T03:13:52;17.33;;;9.70;;
5199;SDS011;2619;47.868;11.892;2023-05-21T03:16:18;13.17;;;9.00;;
5199;SDS011;2619;47.868;11.892;2023-05-21T03:18:44;19.33;;;9.90;;
5199;SDS011;2619;47.868;11.892;2023-05-21T03:21:09;16.13;;;9.70;;
5199;SDS011;2619;47.868;11.892;2023-05-21T03:23:37;16.67;;;10.80;;
5199;SDS011;2619;47.868;11.892;2023-05-21T03:26:04;15.10;;;10.60;;
5199;SDS011;2619;47.868;11.892;2023-05-21T03:28:30;13.17;;;9.93;;
5199;SDS011;2619;47.868;11.892;2023-05-21T03:30:55;16.30;;;10.43;;
5199;SDS011;2619;47.868;11.892;2023-05-21T03:33:21;17.30;;;9.73;;
5199;SDS011;2619;47.868;11.892;2023-05-21T03:35:47;17.00;;;10.13;;
5199;SDS011;2619;47.868;11.892;2023-05-21T03:38:12;16.17;;;10.97;;
5199;SDS011;2619;47.868;11.892;2023-05-21T03:40:38;16.97;;;10.90;;
5199;SDS011;2619;47.868;11.892;2023-05-21T03:43:04;19.73;;;11.10;;
5199;SDS011;2619;47.868;11.892;2023-05-21T03:45:29;14.27;;;10.80;;
5199;SDS011;2619;47.868;11.892;2023-05-21T03:47:55;15.50;;;9.57;;
5199;SDS011;2619;47.868;11.892;2023-05-21T03:50:20;14.17;;;9.60;;
5199;SDS011;2619;47.868;11.892;2023-05-21T03:52:46;14.80;;;10.23;;
5199;SDS011;2619;47.868;11.892;2023-05-21T03:55:11;25.70;;;10.20;;
5199;SDS011;2619;47.868;11.892;2023-05-21T03:57:37;16.87;;;9.47;;
5199;SDS011;2619;47.868;11.892;2023-05-21T04:00:03;24.03;;;10.03;;
5199;SDS011;2619;47.868;11.892;2023-05-21T04:02:30;20.20;;;10.43;;
5199;SDS011;2619;47.868;11.892;2023-05-21T04:04:56;17.60;;;10.20;;
5199;SDS011;2619;47.868;11.892;2023-05-21T04:07:22;21.17;;;11.17;;
5199;SDS011;2619;47.868;11.892;2023-05-21T04:09:47;21.00;;;10.67;;
5199;SDS011;2619;47.868;11.892;2023-05-21T04:12:13;16.40;;;10.90;;
5199;SDS011;2619;47.868;11.892;2023-05-21T04:14:38;16.57;;;11.00;;
5199;SDS011;2619;47.868;11.892;2023-05-21T04:17:05;17.50;;;12.43;;
5199;SDS011;2619;47.868;11.892;2023-05-21T04:19:30;43.37;;;29.63;;
5199;SDS011;2619;47.868;11.892;2023-05-21T04:21:56;19.00;;;13.47;;
5199;SDS011;2619;47.868;11.892;2023-05-21T04:24:25;22.13;;;12.70;;
5199;SDS011;2619;47.868;11.892;2023-05-21T04:26:51;18.63;;;11.70;;
5199;SDS011;2619;47.868;11.892;2023-05-21T04:29:16;19.73;;;10.70;;
5199;SDS011;2619;47.868;11.892;2023-05-21T04:31:45;17.47;;;10.40;;
5199;SDS011;2619;47.868;11.892;2023-05-21T04:34:14;16.83;;;10.90;;
5199;SDS011;2619;47.868;11.892;2023-05-21T04:36:43;17.80;;;11.43;;
5199;SDS011;2619;47.868;11.892;2023-05-21T04:39:10;35.30;;;12.20;;
5199;SDS011;2619;47.868;11.892;2023-05-21T04:41:36;16.80;;;11.10;;
5199;SDS011;2619;47.868;11.892;2023-05-21T04:44:03;22.17;;;10.97;;
5199;SDS011;2619;47.868;11.892;2023-05-21T04:46:32;18.50;;;11.30;;
5199;SDS011;2619;47.868;11.892;2023-05-21T04:48:58;18.80;;;11.27;;
5199;SDS011;2619;47.868;11.892;2023-05-21T04:51:27;24.07;;;11.77;;
5199;SDS011;2619;47.868;11.892;2023-05-21T04:53:54;17.13;;;11.00;;
5199;SDS011;2619;47.868;11.892;2023-05-21T04:56:20;12.90;;;9.87;;
5199;SDS011;2619;47.868;11.892;2023-05-21T04:58:46;17.90;;;10.00;;
5199;SDS011;2619;47.868;11.892;2023-05-21T05:01:14;17.10;;;10.00;;
5199;SDS011;2619;47.868;11.892;2023-05-21T05:03:40;16.60;;;14.40;;
5199;SDS011;2619;47.868;11.892;2023-05-21T05:06:05;18.47;;;12.37;;
5199;SDS011;2619;47.868;11.892;2023-05-21T05:08:32;17.47;;;10.27;;
5199;SDS011;2619;47.868;11.892;2023-05-21T05:10:58;16.30;;;12.10;;
5199;SDS011;2619;47.868;11.892;2023-05-21T05:13:23;13.90;;;10.50;;
5199;SDS011;2619;47.868;11.892;2023-05-21T05:15:50;14.07;;;10.57;;
5199;SDS011;2619;47.868;11.892;2023-05-21T05:18:18;16.73;;;9.90;;
5199;SDS011;2619;47.868;11.892;2023-05-21T05:20:44;13.70;;;9.13;;
5199;SDS011;2619;47.868;11.892;2023-05-21T05:23:10;17.93;;;9.50;;
5199;SDS011;2619;47.868;11.892;2023-05-21T05:25:36;24.50;;;12.57;;
5199;SDS011;2619;47.868;11.892;2023-05-21T05:28:02;10.70;;;9.07;;
5199;SDS011;2619;47.868;11.892;2023-05-21T05:30:27;13.30;;;9.33;;
5199;SDS011;2619;47.868;11.892;2023-05-21T05:32:53;13.60;;;8.50;;
5199;SDS011;2619;47.868;11.892;2023-05-21T05:35:19;12.23;;;9.30;;
5199;SDS011;2619;47.868;11.892;2023-05-21T05:37:44;12.00;;;8.60;;
5199;SDS011;2619;47.868;11.892;2023-05-21T05:40:10;11.90;;;8.47;;
5199;SDS011;2619;47.868;11.892;2023-05-21T05:42:36;10.90;;;8.10;;
5199;SDS011;2619;47.868;11.892;2023-05-21T05:45:01;11.13;;;8.73;;
5199;SDS011;2619;47.868;11.892;2023-05-21T05:47:27;15.87;;;8.93;;
5199;SDS011;2619;47.868;11.892;2023-05-21T05:49:53;13.50;;;9.30;;
5199;SDS011;2619;47.868;11.892;2023-05-21T05:52:18;13.70;;;9.27;;
5199;SDS011;2619;47.868;11.892;2023-05-21T05:54:44;15.90;;;9.27;;
5199;SDS011;2619;47.868;11.892;2023-05-21T05:57:09;10.63;;;8.77;;
5199;SDS011;2619;47.868;11.892;2023-05-21T05:59:35;12.00;;;8.97;;
5199;SDS011;2619;47.868;11.892;2023-05-21T06:02:00;11.47;;;9.40;;
5199;SDS011;2619;47.868;11.892;2023-05-21T06:04:26;12.90;;;9.40;;
5199;SDS011;2619;47.868;11.892;2023-05-21T06:06:54;11.77;;;9.70;;
5199;SDS011;2619;47.868;11.892;2023-05-21T06:09:21;15.40;;;8.90;;
5199;SDS011;2619;47.868;11.892;2023-05-21T06:11:47;11.83;;;9.07;;
5199;SDS011;2619;47.868;11.892;2023-05-21T06:14:13;12.60;;;9.20;;
5199;SDS011;2619;47.868;11.892;2023-05-21T06:16:38;15.40;;;9.30;;
5199;SDS011;2619;47.868;11.892;2023-05-21T06:19:04;11.60;;;9.40;;
5199;SDS011;2619;47.868;11.892;2023-05-21T06:21:30;10.77;;;8.40;;
5199;SDS011;2619;47.868;11.892;2023-05-21T06:23:55;10.60;;;8.80;;
5199;SDS011;2619;47.868;11.892;2023-05-21T06:26:21;10.90;;;8.93;;
5199;SDS011;2619;47.868;11.892;2023-05-21T06:28:47;18.30;;;10.17;;
5199;SDS011;2619;47.868;11.892;2023-05-21T06:31:13;13.80;;;10.10;;
5199;SDS011;2619;47.868;11.892;2023-05-21T06:33:38;16.20;;;9.80;;
5199;SDS011;2619;47.868;11.892;2023-05-21T06:36:04;13.20;;;8.93;;
5199;SDS011;2619;47.868;11.892;2023-05-21T06:38:30;13.33;;;9.23;;
5199;SDS011;2619;47.868;11.892;2023-05-21T06:40:55;10.20;;;9.03;;
5199;SDS011;2619;47.868;11.892;2023-05-21T06:43:22;12.10;;;8.30;;
5199;SDS011;2619;47.868;11.892;2023-05-21T06:45:48;13.67;;;9.93;;
5199;SDS011;2619;47.868;11.892;2023-05-21T06:48:14;9.10;;;8.10;;
5199;SDS011;2619;47.868;11.892;2023-05-21T06:50:42;9.80;;;7.53;;
5199;SDS011;2619;47.868;11.892;2023-05-21T06:53:09;10.00;;;8.90;;
5199;SDS011;2619;47.868;11.892;2023-05-21T06:55:35;9.23;;;8.00;;
5199;SDS011;2619;47.868;11.892;2023-05-21T06:58:01;10.70;;;8.43;;
5199;SDS011;2619;47.868;11.892;2023-05-21T07:00:26;10.50;;;8.63;;
5199;SDS011;2619;47.868;11.892;2023-05-21T07:02:52;13.53;;;9.57;;
5199;SDS011;2619;47.868;11.892;2023-05-21T07:05:18;10.67;;;8.20;;
5199;SDS011;2619;47.868;11.892;2023-05-21T07:07:44;10.47;;;8.73;;
5199;SDS011;2619;47.868;11.892;2023-05-21T07:10:09;11.47;;;9.27;;
5199;SDS011;2619;47.868;11.892;2023-05-21T07:12:35;11.30;;;9.30;;
5199;SDS011;2619;47.868;11.892;2023-05-21T07:15:00;10.77;;;8.87;;
5199;SDS011;2619;47.868;11.892;2023-05-21T07:17:26;10.83;;;9.70;;
5199;SDS011;2619;47.868;11.892;2023-05-21T07:19:51;9.47;;;8.50;;
5199;SDS011;2619;47.868;11.892;2023-05-21T07:22:17;9.83;;;8.07;;
5199;SDS011;2619;47.868;11.892;2023-05-21T07:24:43;8.80;;;7.90;;
5199;SDS011;2619;47.868;11.892;2023-05-21T07:27:08;11.10;;;8.53;;
5199;SDS011;2619;47.868;11.892;2023-05-21T07:29:34;9.93;;;8.17;;
5199;SDS011;2619;47.868;11.892;2023-05-21T07:31:59;9.13;;;8.03;;
5199;SDS011;2619;47.868;11.892;2023-05-21T07:34:26;9.23;;;7.80;;
5199;SDS011;2619;47.868;11.892;2023-05-21T07:36:51;8.80;;;7.57;;
5199;SDS011;2619;47.868;11.892;2023-05-21T07:39:17;8.53;;;7.07;;
5199;SDS011;2619;47.868;11.892;2023-05-21T07:41:42;9.00;;;7.57;;
5199;SDS011;2619;47.868;11.892;2023-05-21T07:44:08;8.40;;;7.50;;
5199;SDS011;2619;47.868;11.892;2023-05-21T07:46:34;10.20;;;7.70;;
5199;SDS011;2619;47.868;11.892;2023-05-21T07:49:00;9.00;;;7.40;;
5199;SDS011;2619;47.868;11.892;2023-05-21T07:51:25;10.20;;;6.90;;
5199;SDS011;2619;47.868;11.892;2023-05-21T07:53:51;9.83;;;7.47;;
5199;SDS011;2619;47.868;11.892;2023-05-21T07:56:17;9.13;;;8.13;;
5199;SDS011;2619;47.868;11.892;2023-05-21T07:58:42;8.90;;;7.07;;
5199;SDS011;2619;47.868;11.892;2023-05-21T08:01:09;11.10;;;7.43;;
5199;SDS011;2619;47.868;11.892;2023-05-21T08:03:35;8.80;;;7.30;;
5199;SDS011;2619;47.868;11.892;2023-05-21T08:06:01;8.20;;;7.40;;
5199;SDS011;2619;47.868;11.892;2023-05-21T08:08:27;8.80;;;7.03;;
5199;SDS011;2619;47.868;11.892;2023-05-21T08:10:52;10.17;;;6.67;;
5199;SDS011;2619;47.868;11.892;2023-05-21T08:13:18;7.57;;;6.70;;
5199;SDS011;2619;47.868;11.892;2023-05-21T08:15:44;9.40;;;7.90;;
5199;SDS011;2619;47.868;11.892;2023-05-21T08:18:10;8.00;;;7.20;;
5199;SDS011;2619;47.868;11.892;2023-05-21T08:20:35;8.47;;;7.57;;
5199;SDS011;2619;47.868;11.892;2023-05-21T08:23:01;9.00;;;7.23;;
5199;SDS011;2619;47.868;11.892;2023-05-21T08:25:27;8.40;;;7.50;;
5199;SDS011;2619;47.868;11.892;2023-05-21T08:27:53;7.87;;;7.00;;
5199;SDS011;2619;47.868;11.892;2023-05-21T08:30:19;8.63;;;7.73;;
5199;SDS011;2619;47.868;11.892;2023-05-21T08:32:45;9.90;;;7.63;;
5199;SDS011;2619;47.868;11.892;2023-05-21T08:35:11;8.87;;;7.53;;
5199;SDS011;2619;47.868;11.892;2023-05-21T08:37:37;8.67;;;7.83;;
5199;SDS011;2619;47.868;11.892;2023-05-21T08:40:03;8.70;;;7.80;;
5199;SDS011;2619;47.868;11.892;2023-05-21T08:42:46;9.00;;;7.77;;
5199;SDS011;2619;47.868;11.892;2023-05-21T08:45:13;12.60;;;8.13;;
5199;SDS011;2619;47.868;11.892;2023-05-21T08:47:43;11.97;;;7.20;;
5199;SDS011;2619;47.868;11.892;2023-05-21T08:50:11;8.47;;;7.57;;
5199;SDS011;2619;47.868;11.892;2023-05-21T08:52:38;8.50;;;7.60;;
5199;SDS011;2619;47.868;11.892;2023-05-21T08:55:04;8.50;;;7.17;;
5199;SDS011;2619;47.868;11.892;2023-05-21T08:57:31;11.00;;;7.30;;
5199;SDS011;2619;47.868;11.892;2023-05-21T08:59:57;10.00;;;7.90;;
5199;SDS011;2619;47.868;11.892;2023-05-21T09:02:23;9.53;;;7.30;;
5199;SDS011;2619;47.868;11.892;2023-05-21T09:04:50;7.47;;;6.67;;
5199;SDS011;2619;47.868;11.892;2023-05-21T09:07:25;9.47;;;7.30;;
5199;SDS011;2619;47.868;11.892;2023-05-21T09:09:56;8.80;;;7.93;;
5199;SDS011;2619;47.868;11.892;2023-05-21T09:12:26;8.03;;;6.77;;
5199;SDS011;2619;47.868;11.892;2023-05-21T09:14:52;8.07;;;7.23;;
5199;SDS011;2619;47.868;11.892;2023-05-21T09:17:19;7.07;;;6.37;;
5199;SDS011;2619;47.868;11.892;2023-05-21T09:20:03;7.60;;;6.80;;
5199;SDS011;2619;47.868;11.892;2023-05-21T09:22:43;6.77;;;6.07;;
5199;SDS011;2619;47.868;11.892;2023-05-21T09:25:17;7.27;;;6.50;;
5199;SDS011;2619;47.868;11.892;2023-05-21T09:27:45;8.70;;;6.60;;
5199;SDS011;2619;47.868;11.892;2023-05-21T09:30:12;7.67;;;6.87;;
5199;SDS011;2619;47.868;11.892;2023-05-21T09:32:42;7.80;;;6.30;;
5199;SDS011;2619;47.868;11.892;2023-05-21T09:35:10;7.60;;;6.60;;
5199;SDS011;2619;47.868;11.892;2023-05-21T09:37:40;7.70;;;6.90;;
5199;SDS011;2619;47.868;11.892;2023-05-21T09:40:20;7.23;;;6.27;;
5199;SDS011;2619;47.868;11.892;2023-05-21T09:45:19;7.77;;;6.47;;
5199;SDS011;2619;47.868;11.892;2023-05-21T09:47:46;7.00;;;6.23;;
5199;SDS011;2619;47.868;11.892;2023-05-21T09:50:17;7.80;;;6.83;;
5199;SDS011;2619;47.868;11.892;2023-05-21T09:52:44;7.47;;;6.67;;
5199;SDS011;2619;47.868;11.892;2023-05-21T09:55:11;7.50;;;6.67;;
5199;SDS011;2619;47.868;11.892;2023-05-21T09:57:41;8.40;;;6.10;;
5199;SDS011;2619;47.868;11.892;2023-05-21T10:00:08;7.77;;;6.97;;
5199;SDS011;2619;47.868;11.892;2023-05-21T10:02:41;6.73;;;6.00;;
5199;SDS011;2619;47.868;11.892;2023-05-21T10:05:10;6.50;;;5.80;;
5199;SDS011;2619;47.868;11.892;2023-05-21T10:07:37;8.10;;;5.80;;
5199;SDS011;2619;47.868;11.892;2023-05-21T10:10:05;7.10;;;6.33;;
5199;SDS011;2619;47.868;11.892;2023-05-21T10:12:32;9.13;;;6.80;;
5199;SDS011;2619;47.868;11.892;2023-05-21T10:15:00;7.23;;;6.53;;
5199;SDS011;2619;47.868;11.892;2023-05-21T10:17:28;6.83;;;5.80;;
5199;SDS011;2619;47.868;11.892;2023-05-21T10:19:54;7.70;;;6.70;;
5199;SDS011;2619;47.868;11.892;2023-05-21T10:22:22;7.93;;;6.10;;
5199;SDS011;2619;47.868;11.892;2023-05-21T10:24:49;7.10;;;6.40;;
5199;SDS011;2619;47.868;11.892;2023-05-21T10:27:16;7.70;;;6.90;;
5199;SDS011;2619;47.868;11.892;2023-05-21T10:29:44;6.17;;;5.50;;
5199;SDS011;2619;47.868;11.892;2023-05-21T10:32:11;9.70;;;6.77;;
5199;SDS011;2619;47.868;11.892;2023-05-21T10:34:38;8.07;;;6.40;;
5199;SDS011;2619;47.868;11.892;2023-05-21T10:37:06;6.60;;;5.90;;
5199;SDS011;2619;47.868;11.892;2023-05-21T10:39:33;7.50;;;6.70;;
5199;SDS011;2619;47.868;11.892;2023-05-21T10:55:32;8.20;;;6.57;;
5199;SDS011;2619;47.868;11.892;2023-05-21T11:00:36;6.50;;;5.90;;
5199;SDS011;2619;47.868;11.892;2023-05-21T11:03:02;6.67;;;5.97;;
5199;SDS011;2619;47.868;11.892;2023-05-21T11:05:49;6.17;;;5.57;;
5199;SDS011;2619;47.868;11.892;2023-05-21T11:08:26;6.07;;;5.47;;
5199;SDS011;2619;47.868;11.892;2023-05-21T11:10:58;6.70;;;5.87;;
5199;SDS011;2619;47.868;11.892;2023-05-21T11:13:24;7.17;;;5.40;;
5199;SDS011;2619;47.868;11.892;2023-05-21T11:21:04;6.10;;;5.43;;
5199;SDS011;2619;47.868;11.892;2023-05-21T11:26:15;5.70;;;5.10;;
5199;SDS011;2619;47.868;11.892;2023-05-21T11:28:42;6.33;;;5.63;;
5199;SDS011;2619;47.868;11.892;2023-05-21T11:31:21;6.00;;;5.40;;
5199;SDS011;2619;47.868;11.892;2023-05-21T11:36:38;6.50;;;4.93;;
5199;SDS011;2619;47.868;11.892;2023-05-21T11:39:16;5.20;;;4.67;;
5199;SDS011;2619;47.868;11.892;2023-05-21T11:44:41;6.20;;;5.50;;
5199;SDS011;2619;47.868;11.892;2023-05-21T11:47:09;6.20;;;5.60;;
5199;SDS011;2619;47.868;11.892;2023-05-21T11:49:35;6.57;;;5.60;;
5199;SDS011;2619;47.868;11.892;2023-05-21T11:52:03;6.83;;;5.03;;
5199;SDS011;2619;47.868;11.892;2023-05-21T11:54:29;6.33;;;5.40;;
5199;SDS011;2619;47.868;11.892;2023-05-21T11:57:01;7.70;;;5.70;;
5199;SDS011;2619;47.868;11.892;2023-05-21T11:59:31;6.10;;;5.50;;
5199;SDS011;2619;47.868;11.892;2023-05-21T12:01:57;6.70;;;5.57;;
5199;SDS011;2619;47.868;11.892;2023-05-21T12:04:23;6.70;;;5.30;;
5199;SDS011;2619;47.868;11.892;2023-05-21T12:06:53;8.70;;;5.43;;
5199;SDS011;2619;47.868;11.892;2023-05-21T12:09:19;6.40;;;5.50;;
5199;SDS011;2619;47.868;11.892;2023-05-21T12:11:45;7.73;;;5.70;;
5199;SDS011;2619;47.868;11.892;2023-05-21T12:14:11;6.77;;;6.17;;
5199;SDS011;2619;47.868;11.892;2023-05-21T12:16:38;7.03;;;6.30;;
5199;SDS011;2619;47.868;11.892;2023-05-21T12:19:04;6.20;;;5.60;;
5199;SDS011;2619;47.868;11.892;2023-05-21T12:21:30;7.33;;;5.73;;
5199;SDS011;2619;47.868;11.892;2023-05-21T12:23:56;7.20;;;6.20;;
5199;SDS011;2619;47.868;11.892;2023-05-21T12:26:23;5.93;;;5.33;;
5199;SDS011;2619;47.868;11.892;2023-05-21T12:28:54;7.00;;;6.30;;
5199;SDS011;2619;47.868;11.892;2023-05-21T12:31:21;7.07;;;6.37;;
5199;SDS011;2619;47.868;11.892;2023-05-21T12:33:50;7.67;;;5.87;;
5199;SDS011;2619;47.868;11.892;2023-05-21T12:36:29;6.23;;;5.70;;
5199;SDS011;2619;47.868;11.892;2023-05-21T12:38:58;7.50;;;6.40;;
5199;SDS011;2619;47.868;11.892;2023-05-21T12:41:24;6.90;;;5.87;;
5199;SDS011;2619;47.868;11.892;2023-05-21T12:43:50;7.53;;;5.90;;
5199;SDS011;2619;47.868;11.892;2023-05-21T12:46:16;5.50;;;4.77;;
5199;SDS011;2619;47.868;11.892;2023-05-21T12:48:49;7.03;;;5.63;;
5199;SDS011;2619;47.868;11.892;2023-05-21T12:51:18;7.80;;;5.67;;
5199;SDS011;2619;47.868;11.892;2023-05-21T12:53:44;6.67;;;5.43;;
5199;SDS011;2619;47.868;11.892;2023-05-21T12:56:11;6.33;;;5.50;;
5199;SDS011;2619;47.868;11.892;2023-05-21T12:58:39;6.20;;;5.33;;
5199;SDS011;2619;47.868;11.892;2023-05-21T13:01:08;8.10;;;6.40;;
5199;SDS011;2619;47.868;11.892;2023-05-21T13:03:40;6.60;;;5.90;;
5199;SDS011;2619;47.868;11.892;2023-05-21T13:06:06;6.83;;;6.13;;
5199;SDS011;2619;47.868;11.892;2023-05-21T13:08:32;6.80;;;5.97;;
5199;SDS011;2619;47.868;11.892;2023-05-21T13:10:59;6.73;;;5.60;;
5199;SDS011;2619;47.868;11.892;2023-05-21T13:13:25;6.57;;;5.90;;
5199;SDS011;2619;47.868;11.892;2023-05-21T13:15:51;7.07;;;6.17;;
5199;SDS011;2619;47.868;11.892;2023-05-21T13:18:18;6.77;;;6.07;;
5199;SDS011;2619;47.868;11.892;2023-05-21T13:20:45;7.40;;;5.13;;
5199;SDS011;2619;47.868;11.892;2023-05-21T13:23:11;6.00;;;5.00;;
5199;SDS011;2619;47.868;11.892;2023-05-21T13:25:37;10.83;;;5.80;;
5199;SDS011;2619;47.868;11.892;2023-05-21T13:28:02;5.97;;;5.43;;
5199;SDS011;2619;47.868;11.892;2023-05-21T13:30:34;6.87;;;6.17;;
5199;SDS011;2619;47.868;11.892;2023-05-21T13:33:00;6.63;;;5.33;;
5199;SDS011;2619;47.868;11.892;2023-05-21T13:35:26;6.40;;;5.40;;
5199;SDS011;2619;47.868;11.892;2023-05-21T13:37:51;6.37;;;5.50;;
5199;SDS011;2619;47.868;11.892;2023-05-21T13:40:17;6.30;;;5.70;;
5199;SDS011;2619;47.868;11.892;2023-05-21T13:42:43;6.60;;;5.40;;
5199;SDS011;2619;47.868;11.892;2023-05-21T13:45:11;7.90;;;5.60;;
5199;SDS011;2619;47.868;11.892;2023-05-21T13:47:38;7.43;;;5.30;;
5199;SDS011;2619;47.868;11.892;2023-05-21T13:50:04;7.33;;;5.80;;
5199;SDS011;2619;47.868;11.892;2023-05-21T13:52:30;6.30;;;5.27;;
5199;SDS011;2619;47.868;11.892;2023-05-21T13:54:55;6.63;;;4.50;;
5199;SDS011;2619;47.868;11.892;2023-05-21T13:57:21;6.50;;;5.73;;
5199;SDS011;2619;47.868;11.892;2023-05-21T13:59:47;5.60;;;4.63;;
5199;SDS011;2619;47.868;11.892;2023-05-21T14:02:14;6.83;;;6.13;;
5199;SDS011;2619;47.868;11.892;2023-05-21T14:04:40;7.00;;;5.63;;
5199;SDS011;2619;47.868;11.892;2023-05-21T14:07:05;5.33;;;4.80;;
5199;SDS011;2619;47.868;11.892;2023-05-21T14:09:31;5.50;;;5.00;;
5199;SDS011;2619;47.868;11.892;2023-05-21T14:11:57;8.20;;;5.00;;
5199;SDS011;2619;47.868;11.892;2023-05-21T14:14:22;5.80;;;4.63;;
5199;SDS011;2619;47.868;11.892;2023-05-21T14:16:49;6.50;;;5.03;;
5199;SDS011;2619;47.868;11.892;2023-05-21T14:19:15;5.70;;;4.97;;
5199;SDS011;2619;47.868;11.892;2023-05-21T14:21:40;5.80;;;5.20;;
5199;SDS011;2619;47.868;11.892;2023-05-21T14:24:06;6.50;;;5.60;;
5199;SDS011;2619;47.868;11.892;2023-05-21T14:26:32;5.43;;;4.90;;
5199;SDS011;2619;47.868;11.892;2023-05-21T14:28:57;5.47;;;4.87;;
5199;SDS011;2619;47.868;11.892;2023-05-21T14:31:23;5.73;;;4.80;;
5199;SDS011;2619;47.868;11.892;2023-05-21T14:33:49;10.40;;;5.60;;
5199;SDS011;2619;47.868;11.892;2023-05-21T14:36:15;5.73;;;4.90;;
5199;SDS011;2619;47.868;11.892;2023-05-21T14:38:41;7.63;;;5.70;;
5199;SDS011;2619;47.868;11.892;2023-05-21T14:41:07;7.27;;;5.13;;
5199;SDS011;2619;47.868;11.892;2023-05-21T14:43:33;5.80;;;5.03;;
5199;SDS011;2619;47.868;11.892;2023-05-21T14:46:00;5.50;;;4.87;;
5199;SDS011;2619;47.868;11.892;2023-05-21T14:48:25;7.77;;;7.07;;
5199;SDS011;2619;47.868;11.892;2023-05-21T14:50:51;9.07;;;5.20;;
5199;SDS011;2619;47.868;11.892;2023-05-21T14:53:17;7.27;;;5.50;;
5199;SDS011;2619;47.868;11.892;2023-05-21T14:55:43;6.03;;;5.43;;
5199;SDS011;2619;47.868;11.892;2023-05-21T14:58:10;7.33;;;5.10;;
5199;SDS011;2619;47.868;11.892;2023-05-21T15:00:36;7.10;;;5.90;;
5199;SDS011;2619;47.868;11.892;2023-05-21T15:03:02;5.73;;;5.10;;
5199;SDS011;2619;47.868;11.892;2023-05-21T15:05:28;6.27;;;5.27;;
5199;SDS011;2619;47.868;11.892;2023-05-21T15:07:54;5.07;;;4.57;;
5199;SDS011;2619;47.868;11.892;2023-05-21T15:10:21;7.00;;;6.27;;
5199;SDS011;2619;47.868;11.892;2023-05-21T15:12:47;13.87;;;11.50;;
5199;SDS011;2619;47.868;11.892;2023-05-21T15:15:12;8.10;;;7.30;;
5199;SDS011;2619;47.868;11.892;2023-05-21T15:17:38;6.33;;;5.17;;
5199;SDS011;2619;47.868;11.892;2023-05-21T15:20:04;7.40;;;5.03;;
5199;SDS011;2619;47.868;11.892;2023-05-21T15:22:30;6.40;;;4.60;;
5199;SDS011;2619;47.868;11.892;2023-05-21T15:24:56;5.77;;;5.20;;
5199;SDS011;2619;47.868;11.892;2023-05-21T15:27:22;7.50;;;6.40;;